Iron Mountain, MI

6:43 AM CDT on October 23, 2014 (GMT -0500)
East Kingsford | Change Station
CLOSE
Current Station
Personal Weather Station
Location: Kingsford, MI
Elevation: 338 m
Nearby Weather Stations

Elev 338 m 45.79 °N, 88.05 °W | Updated 13 minutes ago

Overcast
Overcast
3.1 °C
Feels Like 3 °C
N
1.6
Wind Variable Wind from South
Gusts 6.4 km/h

Today
High -- | Low -- °C
--% Chance of Precip.
Yesterday
High -- | Low -- °C
Precip. -- mm
7:19 AM 5:52 PM
Waning Crescent, 0% visible
Pressure 1020 hPa
Visibility 8.0 kilometers
Clouds Overcast 121 m
Windchill 3 °C
Dew Point 3 °C
Humidity 97%
Rainfall 0 mm
Snow Depth Not available.
UV 0 out of 12
Pollen .10 out of 12
Air Quality Not available.
Flu Activity Sporadic
SPECI KIMT 231114Z AUTO 16007KT 5SM BR OVC004 03/02 A3013 RMK AO2 T00330022

More Conditions Fewer Conditions

Pressure 1020 hPa
Visibility 8.0 kilometers
Clouds Overcast 121 m
Windchill 3 °C
Dew Point 3 °C
Humidity 97%
Rainfall 0 mm
Snow Depth Not available.
UV 0 out of 12
Pollen .10 out of 12
Air Quality Not available.
Flu Activity Sporadic
SPECI KIMT 231114Z AUTO 16007KT 5SM BR OVC004 03/02 A3013 RMK AO2 T00330022

More Conditions Fewer Conditions

10-Day Weather Forecast

Almanac

Astronomy

Oct. 23, 2014 Rise Set
Actual Time 7:19 AM CDT 5:52 PM CDT
Civil Twilight 6:49 AM CDT 6:23 PM CDT
Nautical Twilight 6:14 AM CDT 6:57 PM CDT
Astronomical Twilight 5:40 AM CDT 7:32 PM CDT
Moon 6:58 AM CDT 5:54 PM CDT
Length of Visible Light 11h 33m
Length of Day
10h 32m
Tomorrow will be 3m 2s shorter.
Waning Crescent, 0% of the Moon is Illuminated
Today
Waning Crescent
Oct 23
New
Oct 30
First Quarter
Nov 6
Full
Nov 14
Last Quarter

Today's Extremes

State Highs State Lows

Community

WunderPhotos

Upload Photos

1,764,209 photos uploaded!

Nearby

Snow Depth

Station Depth Elevation
No new snow has been reported.

Earthquake Activity

City Distance Mag. Time & Date
No recent earthquake activity has been reported nearby.
Minimum magnitude displayed is 2.5.

Coastal Water Temperatures

Place Temperature
No Stations Reporting

Nearby Weather Stations